sensor_id;sensor_type;location;lat;lon;timestamp;pressure;altitude;pressure_sealevel;temperature;humidity
61880;BME280;47817;52.798;27.544;2023-03-12T00:03:27;1001.1;;;0.6;91.2
61880;BME280;47817;52.798;27.544;2023-03-12T00:09:05;1001.1;;;0.6;90.7
61880;BME280;47817;52.798;27.544;2023-03-12T00:13:50;1001.1;;;0.6;90.1
61880;BME280;47817;52.798;27.544;2023-03-12T00:18:33;1001.1;;;0.6;86.8
61880;BME280;47817;52.798;27.544;2023-03-12T00:23:57;1001.2;;;0.6;87.5
61880;BME280;47817;52.798;27.544;2023-03-12T00:28:33;1001.3;;;0.6;87.8
61880;BME280;47817;52.798;27.544;2023-03-12T00:34:05;1001.5;;;0.6;87.2
61880;BME280;47817;52.798;27.544;2023-03-12T00:38:39;1001.7;;;0.5;85.9
61880;BME280;47817;52.798;27.544;2023-03-12T00:43:33;1001.8;;;0.6;85.2
61880;BME280;47817;52.798;27.544;2023-03-12T00:48:57;1001.9;;;0.6;86.1
61880;BME280;47817;52.798;27.544;2023-03-12T00:53:45;1002;;;0.6;86.4
61880;BME280;47817;52.798;27.544;2023-03-12T00:59:05;1002;;;0.6;87.6
61880;BME280;47817;52.798;27.544;2023-03-12T01:03:27;1002.1;;;0.6;86
61880;BME280;47817;52.798;27.544;2023-03-12T01:08:39;1002.2;;;0.6;87.1
61880;BME280;47817;52.798;27.544;2023-03-12T01:13:29;1002.2;;;0.7;86.4
61880;BME280;47817;52.798;27.544;2023-03-12T01:18:51;1002.4;;;0.7;86.6
61880;BME280;47817;52.798;27.544;2023-03-12T01:24:06;1002.3;;;0.7;86.3
61880;BME280;47817;52.798;27.544;2023-03-12T01:28:27;1002.5;;;0.7;84.7
61880;BME280;47817;52.798;27.544;2023-03-12T01:34:05;1002.5;;;0.7;83.9
61880;BME280;47817;52.798;27.544;2023-03-12T01:38:58;1002.6;;;0.7;84.2
61880;BME280;47817;52.798;27.544;2023-03-12T01:43:46;1002.6;;;0.7;84.1
61880;BME280;47817;52.798;27.544;2023-03-12T01:49:06;1002.9;;;0.6;83.6
61880;BME280;47817;52.798;27.544;2023-03-12T01:53:28;1003;;;0.7;83.3
61880;BME280;47817;52.798;27.544;2023-03-12T01:59:07;1003.2;;;0.7;82.8
61880;BME280;47817;52.798;27.544;2023-03-12T02:03:57;1002.9;;;0.7;82.6
61880;BME280;47817;52.798;27.544;2023-03-12T02:08:27;1003.1;;;0.7;81.7
61880;BME280;47817;52.798;27.544;2023-03-12T02:14:03;1003.2;;;0.7;81.7
61880;BME280;47817;52.798;27.544;2023-03-12T02:18:49;1003.3;;;0.6;79
61880;BME280;47817;52.798;27.544;2023-03-12T02:24:07;1003.4;;;0.6;79.4
61880;BME280;47817;52.798;27.544;2023-03-12T02:28:58;1003.7;;;0.6;78.6
61880;BME280;47817;52.798;27.544;2023-03-12T02:33:39;1003.6;;;0.6;78.5
61880;BME280;47817;52.798;27.544;2023-03-12T02:39:05;1003.8;;;0.6;79.3
61880;BME280;47817;52.798;27.544;2023-03-12T02:43:57;1003.9;;;0.6;79.2
61880;BME280;47817;52.798;27.544;2023-03-12T02:49:06;1003.9;;;0.6;77.3
61880;BME280;47817;52.798;27.544;2023-03-12T02:53:57;1004;;;0.6;76.3
61880;BME280;47817;52.798;27.544;2023-03-12T02:58:27;1004;;;0.6;76.4
61880;BME280;47817;52.798;27.544;2023-03-12T03:04:06;1004.3;;;0.6;77.5
61880;BME280;47817;52.798;27.544;2023-03-12T03:08:49;1004.4;;;0.4;76.7
61880;BME280;47817;52.798;27.544;2023-03-12T03:14:05;1004.4;;;0.3;76.4
61880;BME280;47817;52.798;27.544;2023-03-12T03:18:58;1004.5;;;0.2;75.9
61880;BME280;47817;52.798;27.544;2023-03-12T03:23:27;1004.6;;;0.1;75.2
61880;BME280;47817;52.798;27.544;2023-03-12T03:29:05;1004.6;;;0.1;75.6
61880;BME280;47817;52.798;27.544;2023-03-12T03:33:49;1004.6;;;0.1;75.4
61880;BME280;47817;52.798;27.544;2023-03-12T03:39:05;1004.8;;;0;75.8
61880;BME280;47817;52.798;27.544;2023-03-12T03:43:58;1004.9;;;0;75.9
61880;BME280;47817;52.798;27.544;2023-03-12T03:48:40;1004.8;;;0;76.4
61880;BME280;47817;52.798;27.544;2023-03-12T03:54:03;1004.8;;;0;77
61880;BME280;47817;52.798;27.544;2023-03-12T03:58:27;1004.9;;;-0.1;76.7
61880;BME280;47817;52.798;27.544;2023-03-12T04:04:05;1005;;;-0.1;76.9
61880;BME280;47817;52.798;27.544;2023-03-12T04:08:57;1005.1;;;-0.1;77.4
61880;BME280;47817;52.798;27.544;2023-03-12T04:13:27;1005.1;;;-0.2;77.3
61880;BME280;47817;52.798;27.544;2023-03-12T04:19:05;1005.1;;;-0.2;77.5
61880;BME280;47817;52.798;27.544;2023-03-12T04:23:49;1005.2;;;-0.2;77.3
61880;BME280;47817;52.798;27.544;2023-03-12T04:29:03;1005.3;;;-0.2;77
61880;BME280;47817;52.798;27.544;2023-03-12T04:33:53;1005.3;;;-0.3;76.8
61880;BME280;47817;52.798;27.544;2023-03-12T04:38:51;1005.4;;;-0.3;76.9
61880;BME280;47817;52.798;27.544;2023-03-12T04:43:53;1005.5;;;-0.4;76.8
61880;BME280;47817;52.798;27.544;2023-03-12T04:48:56;1005.5;;;-0.4;76.9
61880;BME280;47817;52.798;27.544;2023-03-12T04:54:05;1005.6;;;-0.4;77.2
61880;BME280;47817;52.798;27.544;2023-03-12T04:58:57;1005.7;;;-0.5;77.4
61880;BME280;47817;52.798;27.544;2023-03-12T05:03:27;1005.7;;;-0.6;77.8
61880;BME280;47817;52.798;27.544;2023-03-12T05:09:05;1005.7;;;-0.5;78.4
61880;BME280;47817;52.798;27.544;2023-03-12T05:13:27;1005.8;;;-0.5;78.5
61880;BME280;47817;52.798;27.544;2023-03-12T05:19:04;1005.8;;;-0.5;78.6
61880;BME280;47817;52.798;27.544;2023-03-12T05:24:04;1005.9;;;-0.5;78.6
61880;BME280;47817;52.798;27.544;2023-03-12T05:28:35;1005.9;;;-0.4;78.4
61880;BME280;47817;52.798;27.544;2023-03-12T05:33:55;1005.9;;;-0.3;78.4
61880;BME280;47817;52.798;27.544;2023-03-12T05:38:27;1006;;;-0.3;78.4
61880;BME280;47817;52.798;27.544;2023-03-12T05:44:04;1006;;;-0.2;78.3
61880;BME280;47817;52.798;27.544;2023-03-12T05:48:56;1006.1;;;-0.1;78.1
61880;BME280;47817;52.798;27.544;2023-03-12T05:53:41;1006.1;;;-0.1;77.7
61880;BME280;47817;52.798;27.544;2023-03-12T05:58:50;1006.1;;;-0.2;77.8
61880;BME280;47817;52.798;27.544;2023-03-12T06:03:37;1006.2;;;-0.1;77.9
61880;BME280;47817;52.798;27.544;2023-03-12T06:09:04;1006.3;;;-0.1;77.6
61880;BME280;47817;52.798;27.544;2023-03-12T06:13:55;1006.4;;;-0.1;77.7
61880;BME280;47817;52.798;27.544;2023-03-12T06:18:27;1006.4;;;0;77.7
61880;BME280;47817;52.798;27.544;2023-03-12T06:23:54;1006.5;;;0.1;77.4
61880;BME280;47817;52.798;27.544;2023-03-12T06:28:27;1006.5;;;0.2;77.2
61880;BME280;47817;52.798;27.544;2023-03-12T06:34:02;1006.5;;;0.4;76.7
61880;BME280;47817;52.798;27.544;2023-03-12T06:38:55;1006.5;;;0.6;76.1
61880;BME280;47817;52.798;27.544;2023-03-12T06:43:38;1006.7;;;0.7;75.3
61880;BME280;47817;52.798;27.544;2023-03-12T06:48:55;1006.6;;;0.8;74.9
61880;BME280;47817;52.798;27.544;2023-03-12T06:53:45;1006.8;;;0.8;74.5
61880;BME280;47817;52.798;27.544;2023-03-12T06:59:04;1006.8;;;0.9;75
61880;BME280;47817;52.798;27.544;2023-03-12T07:03:53;1006.8;;;1.1;74.9
61880;BME280;47817;52.798;27.544;2023-03-12T07:08:28;1006.8;;;1.1;74.7
61880;BME280;47817;52.798;27.544;2023-03-12T07:13:36;1006.8;;;1.2;74.7
61880;BME280;47817;52.798;27.544;2023-03-12T07:18:27;1006.8;;;1.3;74.5
61880;BME280;47817;52.798;27.544;2023-03-12T07:24:04;1006.9;;;1.4;74.1
61880;BME280;47817;52.798;27.544;2023-03-12T07:28:53;1006.9;;;1.5;74
61880;BME280;47817;52.798;27.544;2023-03-12T07:33:38;1006.9;;;1.6;73.8
61880;BME280;47817;52.798;27.544;2023-03-12T07:38:51;1006.9;;;1.8;73.7
61880;BME280;47817;52.798;27.544;2023-03-12T07:43:47;1007;;;1.7;73.4
61880;BME280;47817;52.798;27.544;2023-03-12T07:49:03;1006.8;;;1.7;74.1
61880;BME280;47817;52.798;27.544;2023-03-12T07:54:02;1006.9;;;1.7;75
61880;BME280;47817;52.798;27.544;2023-03-12T07:58:27;1006.8;;;1.6;75.9
61880;BME280;47817;52.798;27.544;2023-03-12T08:03:53;1006.8;;;1.8;75.1
61880;BME280;47817;52.798;27.544;2023-03-12T08:08:28;1006.8;;;2;76
61880;BME280;47817;52.798;27.544;2023-03-12T08:14:02;1006.8;;;2.2;76
61880;BME280;47817;52.798;27.544;2023-03-12T08:18:54;1006.8;;;2.5;75.3
61880;BME280;47817;52.798;27.544;2023-03-12T08:23:27;1006.8;;;2.8;72.9
61880;BME280;47817;52.798;27.544;2023-03-12T08:28:53;1006.8;;;3.2;73.4
61880;BME280;47817;52.798;27.544;2023-03-12T08:33:35;1006.9;;;3.3;72.8
61880;BME280;47817;52.798;27.544;2023-03-12T08:39:03;1006.9;;;2.9;71.1
61880;BME280;47817;52.798;27.544;2023-03-12T08:43:53;1006.9;;;2.8;71.9
61880;BME280;47817;52.798;27.544;2023-03-12T08:48:43;1006.9;;;2.7;71.3
61880;BME280;47817;52.798;27.544;2023-03-12T08:53:53;1007;;;2.5;72.5
61880;BME280;47817;52.798;27.544;2023-03-12T08:58:45;1007.1;;;2.4;74
61880;BME280;47817;52.798;27.544;2023-03-12T09:04:04;1007.1;;;2.1;75.1
61880;BME280;47817;52.798;27.544;2023-03-12T09:09:02;1007.2;;;1.9;76.3
61880;BME280;47817;52.798;27.544;2023-03-12T09:13:27;1007.3;;;1.7;77.4
61880;BME280;47817;52.798;27.544;2023-03-12T09:19:03;1007.3;;;1.6;77.4
61880;BME280;47817;52.798;27.544;2023-03-12T09:23:37;1007.3;;;1.6;78.5
61880;BME280;47817;52.798;27.544;2023-03-12T09:28:53;1007.2;;;1.6;78.4
61880;BME280;47817;52.798;27.544;2023-03-12T09:33:35;1007.2;;;1.8;79.6
61880;BME280;47817;52.798;27.544;2023-03-12T09:38:37;1007.3;;;1.9;79.8
61880;BME280;47817;52.798;27.544;2023-03-12T09:44:06;1007.2;;;2.4;80.2
61880;BME280;47817;52.798;27.544;2023-03-12T09:48:44;1007.2;;;2.9;80.2
61880;BME280;47817;52.798;27.544;2023-03-12T09:53:56;1007.2;;;3.5;80.7
61880;BME280;47817;52.798;27.544;2023-03-12T09:58:44;1007.2;;;3.8;79.9
61880;BME280;47817;52.798;27.544;2023-03-12T10:03:50;1007.2;;;3.6;80.5
61880;BME280;47817;52.798;27.544;2023-03-12T10:09:06;1007.2;;;3.4;81.3
61880;BME280;47817;52.798;27.544;2023-03-12T10:13:49;1007.2;;;3.3;81.1
61880;BME280;47817;52.798;27.544;2023-03-12T10:18:51;1007.3;;;2.9;81.6
61880;BME280;47817;52.798;27.544;2023-03-12T10:23:29;1007.3;;;3;81.5
61880;BME280;47817;52.798;27.544;2023-03-12T10:28:29;1007.3;;;3;80.8
61880;BME280;47817;52.798;27.544;2023-03-12T10:34:08;1007.2;;;3.7;80.5
61880;BME280;47817;52.798;27.544;2023-03-12T10:38:46;1007.2;;;3.9;78.9
61880;BME280;47817;52.798;27.544;2023-03-12T10:43:50;1007.2;;;3.8;78.7
61880;BME280;47817;52.798;27.544;2023-03-12T10:48:28;1007.2;;;3.9;78.5
61880;BME280;47817;52.798;27.544;2023-03-12T10:53:40;1007.2;;;3.7;77.5
61880;BME280;47817;52.798;27.544;2023-03-12T10:59:04;1007.2;;;3.6;77.4
61880;BME280;47817;52.798;27.544;2023-03-12T11:03:46;1007.3;;;3.7;77.1
61880;BME280;47817;52.798;27.544;2023-03-12T11:09:00;1007.3;;;3.6;76.9
61880;BME280;47817;52.798;27.544;2023-03-12T11:13:29;1007.3;;;3.5;76.7
61880;BME280;47817;52.798;27.544;2023-03-12T11:18:29;1007.3;;;3.9;75
61880;BME280;47817;52.798;27.544;2023-03-12T11:24:05;1007.2;;;3.9;72.6
61880;BME280;47817;52.798;27.544;2023-03-12T11:28:30;1007.3;;;3.9;71.3
61880;BME280;47817;52.798;27.544;2023-03-12T11:33:58;1007.2;;;3.7;69.9
61880;BME280;47817;52.798;27.544;2023-03-12T11:38:49;1007.2;;;3.6;68.7
61880;BME280;47817;52.798;27.544;2023-03-12T11:43:32;1007.3;;;3.5;67.1
61880;BME280;47817;52.798;27.544;2023-03-12T11:49:08;1007.4;;;3.7;67.4
61880;BME280;47817;52.798;27.544;2023-03-12T11:53:31;1007.5;;;3.6;67.2
61880;BME280;47817;52.798;27.544;2023-03-12T11:59:01;1007.4;;;3.5;67.4
61880;BME280;47817;52.798;27.544;2023-03-12T12:03:52;1007.5;;;3.6;67.3
61880;BME280;47817;52.798;27.544;2023-03-12T12:08:41;1007.5;;;3.8;66.9
61880;BME280;47817;52.798;27.544;2023-03-12T12:14:13;1007.5;;;3.8;65.7
61880;BME280;47817;52.798;27.544;2023-03-12T12:18:53;1007.5;;;3.8;67.5
61880;BME280;47817;52.798;27.544;2023-03-12T12:24:13;1007.6;;;3.7;69.8
61880;BME280;47817;52.798;27.544;2023-03-12T12:28:53;1007.7;;;3.5;71.1
61880;BME280;47817;52.798;27.544;2023-03-12T12:34:15;1008.3;;;3.1;74
61880;BME280;47817;52.798;27.544;2023-03-12T12:39:08;1008.5;;;1.9;86.8
61880;BME280;47817;52.798;27.544;2023-03-12T12:43:40;1008.2;;;1.6;86.6
61880;BME280;47817;52.798;27.544;2023-03-12T12:48:48;1008.2;;;2.6;85.5
61880;BME280;47817;52.798;27.544;2023-03-12T12:53:47;1008.5;;;3;80.3
61880;BME280;47817;52.798;27.544;2023-03-12T12:58:43;1008.7;;;2.5;78.3
61880;BME280;47817;52.798;27.544;2023-03-12T13:04:04;1008.7;;;1.8;81.7
61880;BME280;47817;52.798;27.544;2023-03-12T13:08:58;1008.6;;;1.5;84.8
61880;BME280;47817;52.798;27.544;2023-03-12T13:14:12;1008.6;;;1.5;85.1
61880;BME280;47817;52.798;27.544;2023-03-12T13:18:40;1008.7;;;2;83.3
61880;BME280;47817;52.798;27.544;2023-03-12T13:23:39;1008.7;;;2.4;78.5
61880;BME280;47817;52.798;27.544;2023-03-12T13:28:55;1008.7;;;2.5;76.1
61880;BME280;47817;52.798;27.544;2023-03-12T13:33:36;1008.8;;;2.7;72.8
61880;BME280;47817;52.798;27.544;2023-03-12T13:39:17;1008.8;;;2.9;70.4
61880;BME280;47817;52.798;27.544;2023-03-12T13:44:36;1008.8;;;3.3;70.3
61880;BME280;47817;52.798;27.544;2023-03-12T13:48:28;1008.8;;;4.2;67.5
61880;BME280;47817;52.798;27.544;2023-03-12T13:53:46;1008.7;;;5.3;62.5
61880;BME280;47817;52.798;27.544;2023-03-12T13:58:28;1008.7;;;7;58
61880;BME280;47817;52.798;27.544;2023-03-12T14:04:10;1008.9;;;5.8;57.4
61880;BME280;47817;52.798;27.544;2023-03-12T14:09:01;1009;;;5.2;59.5
61880;BME280;47817;52.798;27.544;2023-03-12T14:13:41;1008.9;;;5.1;58.7
61880;BME280;47817;52.798;27.544;2023-03-12T14:18:58;1009;;;4.6;59.6
61880;BME280;47817;52.798;27.544;2023-03-12T14:23:28;1009;;;4.7;58.5
61880;BME280;47817;52.798;27.544;2023-03-12T14:29:14;1009.2;;;4.3;58.2
61880;BME280;47817;52.798;27.544;2023-03-12T14:34:03;1009.6;;;3.3;61.1
61880;BME280;47817;52.798;27.544;2023-03-12T14:38:34;1009.9;;;2.3;66.8
61880;BME280;47817;52.798;27.544;2023-03-12T14:43:34;1010.3;;;1.5;73.5
61880;BME280;47817;52.798;27.544;2023-03-12T14:48:40;1010.3;;;0.8;82.4
61880;BME280;47817;52.798;27.544;2023-03-12T14:54:14;1010.2;;;0.7;85
61880;BME280;47817;52.798;27.544;2023-03-12T14:59:18;1010.1;;;0.7;85
61880;BME280;47817;52.798;27.544;2023-03-12T15:03:28;1010.2;;;0.8;85.1
61880;BME280;47817;52.798;27.544;2023-03-12T15:08:48;1010.1;;;0.9;85.5
61880;BME280;47817;52.798;27.544;2023-03-12T15:13:42;1010.2;;;0.8;85.3
61880;BME280;47817;52.798;27.544;2023-03-12T15:19:15;1010.3;;;0.7;84.8
61880;BME280;47817;52.798;27.544;2023-03-12T15:24:04;1010.3;;;0.7;84.2
61880;BME280;47817;52.798;27.544;2023-03-12T15:28:53;1010.4;;;0.7;82.7
61880;BME280;47817;52.798;27.544;2023-03-12T15:33:57;1010.4;;;0.8;81.9
61880;BME280;47817;52.798;27.544;2023-03-12T15:38:43;1010.5;;;0.8;81.3
61880;BME280;47817;52.798;27.544;2023-03-12T15:44:16;1010.5;;;1;81.4
61880;BME280;47817;52.798;27.544;2023-03-12T15:49:10;1010.6;;;1.2;80.6
61880;BME280;47817;52.798;27.544;2023-03-12T15:53:40;1010.6;;;2.6;77.3
61880;BME280;47817;52.798;27.544;2023-03-12T15:58:29;1010.6;;;2.5;76.5
61880;BME280;47817;52.798;27.544;2023-03-12T16:03:28;1010.8;;;1.9;77.1
61880;BME280;47817;52.798;27.544;2023-03-12T16:09:15;1011.1;;;1.4;78.5
61880;BME280;47817;52.798;27.544;2023-03-12T16:13:57;1011.3;;;1.1;79.2
61880;BME280;47817;52.798;27.544;2023-03-12T16:18:28;1011.8;;;1;79
61880;BME280;47817;52.798;27.544;2023-03-12T16:23:40;1012.4;;;0.6;80
61880;BME280;47817;52.798;27.544;2023-03-12T16:28:28;1012.3;;;0.2;85.4
61880;BME280;47817;52.798;27.544;2023-03-12T16:34:16;1012.6;;;-0.3;89.3
61880;BME280;47817;52.798;27.544;2023-03-12T16:39:06;1012.6;;;-0.5;90
61880;BME280;47817;52.798;27.544;2023-03-12T16:43:42;1012.7;;;-0.7;89.8
61880;BME280;47817;52.798;27.544;2023-03-12T16:48:34;1012.8;;;-0.7;89.1
61880;BME280;47817;52.798;27.544;2023-03-12T16:53:28;1013.2;;;-0.8;90.5
61880;BME280;47817;52.798;27.544;2023-03-12T16:59:13;1013.1;;;-0.9;93.4
61880;BME280;47817;52.798;27.544;2023-03-12T17:04:08;1012.8;;;-0.9;94
61880;BME280;47817;52.798;27.544;2023-03-12T17:08:48;1013;;;-1;92.9
61880;BME280;47817;52.798;27.544;2023-03-12T17:13:42;1013.1;;;-1.1;92.6
61880;BME280;47817;52.798;27.544;2023-03-12T17:18:40;1013.2;;;-1.2;92.3
61880;BME280;47817;52.798;27.544;2023-03-12T17:24:14;1013.4;;;-1.3;91.8
61880;BME280;47817;52.798;27.544;2023-03-12T17:29:06;1013.6;;;-1.3;91.7
61880;BME280;47817;52.798;27.544;2023-03-12T17:34:14;1013.6;;;-1.4;90.4
61880;BME280;47817;52.798;27.544;2023-03-12T17:38:48;1013.8;;;-1.5;89
61880;BME280;47817;52.798;27.544;2023-03-12T17:43:42;1013.9;;;-1.5;86.9
61880;BME280;47817;52.798;27.544;2023-03-12T17:48:52;1014;;;-1.5;85.1
61880;BME280;47817;52.798;27.544;2023-03-12T17:54:06;1014;;;-1.4;84
61880;BME280;47817;52.798;27.544;2023-03-12T17:59:14;1014.2;;;-1.4;82.7
61880;BME280;47817;52.798;27.544;2023-03-12T18:03:28;1014.2;;;-1.4;81.8
61880;BME280;47817;52.798;27.544;2023-03-12T18:09:02;1014.3;;;-1.4;80.9
61880;BME280;47817;52.798;27.544;2023-03-12T18:14:14;1014.4;;;-1.4;80.4
61880;BME280;47817;52.798;27.544;2023-03-12T18:18:42;1014.5;;;-1.4;79.8
61880;BME280;47817;52.798;27.544;2023-03-12T18:24:14;1014.5;;;-1.3;79
61880;BME280;47817;52.798;27.544;2023-03-12T18:28:28;1014.6;;;-1.3;78.8
61880;BME280;47817;52.798;27.544;2023-03-12T18:34:10;1014.5;;;-1.3;78.7
61880;BME280;47817;52.798;27.544;2023-03-12T18:39:14;1014.6;;;-1.4;78.5
61880;BME280;47817;52.798;27.544;2023-03-12T18:43:54;1014.7;;;-1.4;78.3
61880;BME280;47817;52.798;27.544;2023-03-12T18:49:12;1014.8;;;-1.4;77.8
61880;BME280;47817;52.798;27.544;2023-03-12T18:53:28;1014.9;;;-1.3;77.7
61880;BME280;47817;52.798;27.544;2023-03-12T18:58:28;1015;;;-1.2;77.9
61880;BME280;47817;52.798;27.544;2023-03-12T19:04:13;1015.1;;;-1.2;77.8
61880;BME280;47817;52.798;27.544;2023-03-12T19:09:04;1015.2;;;-1.2;77.7
61880;BME280;47817;52.798;27.544;2023-03-12T19:14:12;1015.3;;;-1.2;77.5
61880;BME280;47817;52.798;27.544;2023-03-12T19:18:46;1015.4;;;-1.2;78
61880;BME280;47817;52.798;27.544;2023-03-12T19:23:28;1015.5;;;-1.3;78
61880;BME280;47817;52.798;27.544;2023-03-12T19:29:12;1015.5;;;-1.3;78.1
61880;BME280;47817;52.798;27.544;2023-03-12T19:34:04;1015.6;;;-1.3;78
61880;BME280;47817;52.798;27.544;2023-03-12T19:39:12;1015.7;;;-1.2;77.3
61880;BME280;47817;52.798;27.544;2023-03-12T19:43:46;1015.8;;;-1.2;77.1
61880;BME280;47817;52.798;27.544;2023-03-12T19:48:40;1015.8;;;-1.2;77.1
61880;BME280;47817;52.798;27.544;2023-03-12T19:54:04;1015.9;;;-1.3;76.7
61880;BME280;47817;52.798;27.544;2023-03-12T19:59:04;1016;;;-1.3;76.1
61880;BME280;47817;52.798;27.544;2023-03-12T20:04:12;1016;;;-1.3;76
61880;BME280;47817;52.798;27.544;2023-03-12T20:08:46;1016.1;;;-1.3;75.5
61880;BME280;47817;52.798;27.544;2023-03-12T20:13:38;1016.3;;;-1.3;74.7
61880;BME280;47817;52.798;27.544;2023-03-12T20:19:12;1016.3;;;-1.3;73.7
61880;BME280;47817;52.798;27.544;2023-03-12T20:24:02;1016.4;;;-1.3;72.5
61880;BME280;47817;52.798;27.544;2023-03-12T20:28:54;1016.6;;;-1.3;72.2
61880;BME280;47817;52.798;27.544;2023-03-12T20:33:56;1016.6;;;-1.3;71.7
61880;BME280;47817;52.798;27.544;2023-03-12T20:38:28;1016.7;;;-1.2;71.2
61880;BME280;47817;52.798;27.544;2023-03-12T20:44:10;1016.9;;;-1.2;70.3
61880;BME280;47817;52.798;27.544;2023-03-12T20:48:58;1017;;;-1.2;69.8
61880;BME280;47817;52.798;27.544;2023-03-12T20:54:12;1017;;;-1.2;68.7
61880;BME280;47817;52.798;27.544;2023-03-12T20:58:46;1017.1;;;-1.2;67.8
61880;BME280;47817;52.798;27.544;2023-03-12T21:03:28;1017.2;;;-1.1;67.4
61880;BME280;47817;52.798;27.544;2023-03-12T21:09:12;1017.3;;;-1.1;67
61880;BME280;47817;52.798;27.544;2023-03-12T21:14:02;1017.4;;;-1.1;66.4
61880;BME280;47817;52.798;27.544;2023-03-12T21:19:12;1017.4;;;-1.1;65.7
61880;BME280;47817;52.798;27.544;2023-03-12T21:23:44;1017.5;;;-1.1;65.7
61880;BME280;47817;52.798;27.544;2023-03-12T21:28:40;1017.6;;;-1.1;65.2
61880;BME280;47817;52.798;27.544;2023-03-12T21:34:12;1017.6;;;-1.1;65.2
61880;BME280;47817;52.798;27.544;2023-03-12T21:39:04;1017.8;;;-1.1;64.8
61880;BME280;47817;52.798;27.544;2023-03-12T21:44:12;1017.9;;;-1.1;64
61880;BME280;47817;52.798;27.544;2023-03-12T21:48:44;1017.9;;;-1.1;63.9
61880;BME280;47817;52.798;27.544;2023-03-12T21:53:38;1018;;;-1.1;63.2
61880;BME280;47817;52.798;27.544;2023-03-12T21:59:12;1018.1;;;-1.1;62.9
61880;BME280;47817;52.798;27.544;2023-03-12T22:04:04;1018.2;;;-1.1;62.8
61880;BME280;47817;52.798;27.544;2023-03-12T22:09:12;1018.2;;;-1.1;61.9
61880;BME280;47817;52.798;27.544;2023-03-12T22:13:44;1018.3;;;-1.1;60.9
61880;BME280;47817;52.798;27.544;2023-03-12T22:18:28;1018.4;;;-1.1;60.5
61880;BME280;47817;52.798;27.544;2023-03-12T22:24:10;1018.5;;;-1.1;60.8
61880;BME280;47817;52.798;27.544;2023-03-12T22:29:02;1018.5;;;-1.2;61.2
61880;BME280;47817;52.798;27.544;2023-03-12T22:34:10;1018.5;;;-1.2;61.7
61880;BME280;47817;52.798;27.544;2023-03-12T22:38:38;1018.6;;;-1.2;62.2
61880;BME280;47817;52.798;27.544;2023-03-12T22:43:28;1018.6;;;-1.3;62.5
61880;BME280;47817;52.798;27.544;2023-03-12T22:49:10;1018.6;;;-1.4;62.5
61880;BME280;47817;52.798;27.544;2023-03-12T22:53:30;1018.7;;;-1.5;62.8
61880;BME280;47817;52.798;27.544;2023-03-12T22:59:12;1018.8;;;-1.6;63
61880;BME280;47817;52.798;27.544;2023-03-12T23:03:46;1018.9;;;-1.7;63.4
61880;BME280;47817;52.798;27.544;2023-03-12T23:08:44;1018.9;;;-1.7;63.6
61880;BME280;47817;52.798;27.544;2023-03-12T23:14:10;1019;;;-1.8;63.7
61880;BME280;47817;52.798;27.544;2023-03-12T23:19:04;1019.1;;;-1.8;63.8
61880;BME280;47817;52.798;27.544;2023-03-12T23:24:12;1019.2;;;-1.8;63.8
61880;BME280;47817;52.798;27.544;2023-03-12T23:28:46;1019.3;;;-1.8;63.8
61880;BME280;47817;52.798;27.544;2023-03-12T23:33:28;1019.4;;;-1.8;63.7
61880;BME280;47817;52.798;27.544;2023-03-12T23:39:10;1019.4;;;-1.9;63.8
61880;BME280;47817;52.798;27.544;2023-03-12T23:44:00;1019.5;;;-1.9;64
61880;BME280;47817;52.798;27.544;2023-03-12T23:49:10;1019.5;;;-1.9;64.1
61880;BME280;47817;52.798;27.544;2023-03-12T23:53:28;1019.5;;;-1.9;64.1
61880;BME280;47817;52.798;27.544;2023-03-12T23:58:40;1019.5;;;-1.9;64.4
